Time;durP1;ratioP1;P1;durP2;ratioP2;P2;SDS_P1;SDS_P2;PMS_P1;PMS_P2;Temp;Humidity;BMP_temperature;BMP_pressure;BME280_temperature;BME280_humidity;BME280_pressure;Samples;Min_cycle;Max_cycle;Signal;HPM_P1;HPM_P2
2023/11/29 00:01:08;;;;;;;;;;;21.00;40.20;;;;;;4994514;28;19976;-52
2023/11/29 00:03:35;;;;;;;;;;;21.00;40.20;;;;;;4994410;28;20260;-48
2023/11/29 00:06:03;;;;;;;;;;;21.00;40.20;;;;;;4993950;28;19934;-49
2023/11/29 00:08:30;;;;;;;;;;;21.00;40.20;;;;;;4994420;28;20343;-54
2023/11/29 00:10:57;;;;;;;;;;;21.00;40.20;;;;;;4994256;28;20327;-53
2023/11/29 00:13:24;;;;;;;;;;;21.00;40.20;;;;;;4976960;28;19932;-48
2023/11/29 00:15:51;;;;;;;;;;;21.00;40.20;;;;;;4994033;28;19926;-49
2023/11/29 00:18:18;;;;;;;;;;;20.90;40.20;;;;;;4993949;28;19929;-48
2023/11/29 00:20:45;;;;;;;;;;;20.90;40.20;;;;;;4994242;28;19948;-55
2023/11/29 00:23:12;;;;;;;;;;;20.90;40.20;;;;;;4994189;28;19930;-48
2023/11/29 00:25:39;;;;;;;;;;;20.90;40.20;;;;;;4993968;28;19925;-50
2023/11/29 00:28:06;;;;;;;;;;;20.90;40.20;;;;;;4993827;28;19933;-52
2023/11/29 00:30:33;;;;;;;;;;;20.90;40.20;;;;;;4993724;28;20375;-50
2023/11/29 00:33:00;;;;;;;;;;;20.90;40.20;;;;;;4994092;28;19925;-48
2023/11/29 00:35:28;;;;;;;;;;;20.90;40.20;;;;;;4994206;28;20272;-49
2023/11/29 00:37:55;;;;;;;;;;;20.90;40.10;;;;;;4993499;28;20020;-50
2023/11/29 00:40:21;;;;;;;;;;;20.90;40.10;;;;;;4993857;28;19930;-50
2023/11/29 00:42:48;;;;;;;;;;;20.90;40.10;;;;;;4994136;28;19926;-48
2023/11/29 00:45:19;;;;;;;;;;;20.90;40.10;;;;;;4997504;28;19930;-48
2023/11/29 00:47:46;;;;;;;;;;;20.90;40.00;;;;;;4997380;28;20021;-49
2023/11/29 00:50:13;;;;;;;;;;;20.90;40.00;;;;;;4990203;28;20339;-49
2023/11/29 00:52:40;;;;;;;;;;;20.90;40.00;;;;;;4978212;28;19981;-49
2023/11/29 00:55:07;;;;;;;;;;;20.90;40.00;;;;;;4978159;28;20021;-49
2023/11/29 00:57:36;;;;;;;;;;;20.90;40.00;;;;;;4977864;28;20033;-51
2023/11/29 01:00:05;;;;;;;;;;;20.80;40.00;;;;;;4978267;28;19970;-50
2023/11/29 01:02:32;;;;;;;;;;;20.80;40.00;;;;;;4978119;28;19980;-49
2023/11/29 01:04:59;;;;;;;;;;;20.90;40.00;;;;;;4978241;28;19926;-48
2023/11/29 01:07:26;;;;;;;;;;;20.80;39.90;;;;;;4977954;28;20301;-54
2023/11/29 01:09:53;;;;;;;;;;;20.80;39.90;;;;;;4977977;28;19973;-55
2023/11/29 01:12:20;;;;;;;;;;;20.80;39.90;;;;;;4977967;28;20012;-55
2023/11/29 01:14:47;;;;;;;;;;;20.80;39.90;;;;;;4977959;28;20009;-55
2023/11/29 01:17:14;;;;;;;;;;;20.80;39.90;;;;;;4977955;28;20021;-54
2023/11/29 01:19:41;;;;;;;;;;;20.80;39.90;;;;;;4977828;28;19926;-54
2023/11/29 01:22:08;;;;;;;;;;;20.80;39.80;;;;;;4977752;28;20025;-54
2023/11/29 01:24:35;;;;;;;;;;;20.80;39.80;;;;;;4977837;28;19996;-54
2023/11/29 01:27:02;;;;;;;;;;;20.80;39.80;;;;;;4977308;28;19934;-53
2023/11/29 01:29:29;;;;;;;;;;;20.80;39.70;;;;;;4977656;28;19962;-50
2023/11/29 01:31:56;;;;;;;;;;;20.80;39.80;;;;;;4977313;28;20328;-55
2023/11/29 01:34:24;;;;;;;;;;;20.70;39.70;;;;;;4977497;28;20020;-55
2023/11/29 01:36:51;;;;;;;;;;;20.70;39.70;;;;;;4979110;28;20009;-49
2023/11/29 01:39:18;;;;;;;;;;;20.70;39.70;;;;;;4995852;28;19926;-50
2023/11/29 01:41:45;;;;;;;;;;;20.70;39.70;;;;;;4996904;28;19965;-50
2023/11/29 01:44:12;;;;;;;;;;;20.80;39.70;;;;;;4996532;28;19933;-54
2023/11/29 01:46:39;;;;;;;;;;;20.70;39.60;;;;;;4996716;28;19933;-49
2023/11/29 01:49:07;;;;;;;;;;;20.80;39.70;;;;;;4996519;28;19977;-55
2023/11/29 01:51:34;;;;;;;;;;;20.80;39.70;;;;;;4978509;28;19968;-53
2023/11/29 01:54:02;;;;;;;;;;;20.70;39.60;;;;;;4959948;28;19965;-49
2023/11/29 01:56:29;;;;;;;;;;;20.70;39.60;;;;;;4976381;28;19930;-49
2023/11/29 01:58:56;;;;;;;;;;;20.70;39.60;;;;;;4976668;28;19930;-54
2023/11/29 02:01:23;;;;;;;;;;;20.70;39.60;;;;;;4976944;28;19976;-48
2023/11/29 02:03:50;;;;;;;;;;;20.70;39.60;;;;;;4977142;28;19976;-49
2023/11/29 02:06:19;;;;;;;;;;;20.70;39.60;;;;;;4976950;28;19930;-52
2023/11/29 02:08:46;;;;;;;;;;;20.70;39.60;;;;;;4976593;28;19970;-48
2023/11/29 02:11:16;;;;;;;;;;;20.70;39.60;;;;;;4976625;28;20025;-49
2023/11/29 02:13:43;;;;;;;;;;;20.70;39.60;;;;;;4976646;28;20020;-52
2023/11/29 02:16:10;;;;;;;;;;;20.70;39.60;;;;;;4976607;28;19965;-49
2023/11/29 02:18:37;;;;;;;;;;;20.70;39.60;;;;;;4976644;28;20024;-49
2023/11/29 02:21:04;;;;;;;;;;;20.70;39.60;;;;;;4976471;28;20375;-51
2023/11/29 02:23:47;;;;;;;;;;;20.60;39.50;;;;;;4959831;28;19958;-50
2023/11/29 02:26:14;;;;;;;;;;;20.70;39.60;;;;;;4976766;28;19930;-48
2023/11/29 02:28:42;;;;;;;;;;;20.60;39.50;;;;;;4976091;28;19988;-49
2023/11/29 02:31:09;;;;;;;;;;;20.60;39.50;;;;;;4976574;28;19926;-49
2023/11/29 02:33:35;;;;;;;;;;;20.70;39.50;;;;;;4976466;28;19973;-51
2023/11/29 02:36:03;;;;;;;;;;;20.60;39.50;;;;;;4976109;28;19977;-54
2023/11/29 02:38:33;;;;;;;;;;;20.60;39.50;;;;;;4976003;28;19973;-48
2023/11/29 02:41:00;;;;;;;;;;;20.60;39.50;;;;;;4976101;28;19926;-48
2023/11/29 02:43:27;;;;;;;;;;;20.60;39.50;;;;;;4976499;28;20004;-49
2023/11/29 02:45:54;;;;;;;;;;;20.60;39.50;;;;;;4976018;28;19949;-51
2023/11/29 02:48:21;;;;;;;;;;;20.60;39.40;;;;;;4976175;28;20335;-55
2023/11/29 02:50:48;;;;;;;;;;;20.60;39.30;;;;;;4988026;28;19926;-52
2023/11/29 02:53:15;;;;;;;;;;;20.60;39.30;;;;;;4995829;28;19933;-55
2023/11/29 02:55:42;;;;;;;;;;;20.60;39.30;;;;;;4995124;28;19933;-54
2023/11/29 02:58:09;;;;;;;;;;;20.60;39.20;;;;;;4995350;28;19926;-54
2023/11/29 03:00:36;;;;;;;;;;;20.60;39.10;;;;;;4995597;28;19969;-54
2023/11/29 03:03:03;;;;;;;;;;;20.60;39.00;;;;;;4994949;28;19929;-54
2023/11/29 03:05:30;;;;;;;;;;;20.60;39.00;;;;;;4994947;28;19936;-54
2023/11/29 03:07:57;;;;;;;;;;;20.60;39.00;;;;;;4993947;28;20394;-53
2023/11/29 03:10:24;;;;;;;;;;;20.60;39.00;;;;;;4994815;28;20442;-51
2023/11/29 03:12:51;;;;;;;;;;;20.60;39.00;;;;;;4995484;28;19926;-55
2023/11/29 03:15:18;;;;;;;;;;;20.60;39.00;;;;;;4977721;28;19933;-52
2023/11/29 03:17:45;;;;;;;;;;;20.50;39.00;;;;;;4994110;28;19940;-53
2023/11/29 03:20:12;;;;;;;;;;;20.60;39.00;;;;;;4974708;28;19926;-50
2023/11/29 03:22:39;;;;;;;;;;;20.50;39.00;;;;;;4975100;28;19970;-54
2023/11/29 03:25:07;;;;;;;;;;;20.50;38.90;;;;;;4975248;28;19969;-53
2023/11/29 03:27:34;;;;;;;;;;;20.50;38.90;;;;;;4975811;28;19934;-48
2023/11/29 03:30:01;;;;;;;;;;;20.60;39.00;;;;;;4975342;28;19993;-49
2023/11/29 03:32:28;;;;;;;;;;;20.50;38.90;;;;;;4975777;28;19980;-52
2023/11/29 03:34:55;;;;;;;;;;;20.50;39.10;;;;;;4974371;28;19980;-49
2023/11/29 03:37:22;;;;;;;;;;;20.50;38.90;;;;;;4974975;28;20024;-52
2023/11/29 03:39:49;;;;;;;;;;;20.50;38.90;;;;;;4974818;28;19969;-51
2023/11/29 03:42:16;;;;;;;;;;;20.50;39.00;;;;;;4975313;28;19926;-50
2023/11/29 03:44:43;;;;;;;;;;;20.50;39.00;;;;;;4974687;28;19929;-48
2023/11/29 03:47:10;;;;;;;;;;;20.50;39.00;;;;;;4975383;28;19973;-51
2023/11/29 03:49:37;;;;;;;;;;;20.50;39.00;;;;;;4976984;28;19928;-48
2023/11/29 03:52:04;;;;;;;;;;;20.50;39.00;;;;;;4994323;28;19985;-48
2023/11/29 03:54:31;;;;;;;;;;;20.50;39.00;;;;;;4977438;28;19965;-48
2023/11/29 03:56:58;;;;;;;;;;;20.50;39.00;;;;;;4994312;28;19984;-51
2023/11/29 03:59:25;;;;;;;;;;;20.50;39.00;;;;;;4994027;28;19925;-51
2023/11/29 04:01:52;;;;;;;;;;;20.50;39.00;;;;;;4993625;28;20398;-48
2023/11/29 04:04:19;;;;;;;;;;;20.40;38.90;;;;;;4994116;28;19972;-50
2023/11/29 04:06:46;;;;;;;;;;;20.40;38.90;;;;;;4994157;28;19926;-54
2023/11/29 04:09:13;;;;;;;;;;;20.40;38.90;;;;;;4974397;28;19980;-48
2023/11/29 04:11:40;;;;;;;;;;;20.40;38.90;;;;;;4974863;28;20340;-48
2023/11/29 04:14:07;;;;;;;;;;;20.40;38.90;;;;;;4974642;28;20372;-53
2023/11/29 04:16:35;;;;;;;;;;;20.40;38.90;;;;;;4966908;28;20375;-47
2023/11/29 04:19:02;;;;;;;;;;;20.40;38.90;;;;;;4959182;28;19930;-54
2023/11/29 04:21:31;;;;;;;;;;;20.40;38.90;;;;;;4974044;28;19933;-49
2023/11/29 04:23:58;;;;;;;;;;;20.40;38.90;;;;;;4974830;28;20012;-53
2023/11/29 04:26:27;;;;;;;;;;;20.40;38.90;;;;;;4974751;28;19933;-48
2023/11/29 04:28:54;;;;;;;;;;;20.40;38.90;;;;;;4974660;28;20320;-54
2023/11/29 04:31:21;;;;;;;;;;;20.40;38.90;;;;;;4974284;28;19933;-54
2023/11/29 04:33:48;;;;;;;;;;;20.40;38.90;;;;;;4974428;28;19965;-56
2023/11/29 04:36:15;;;;;;;;;;;20.40;38.90;;;;;;4974234;28;20427;-54
2023/11/29 04:38:42;;;;;;;;;;;20.40;38.90;;;;;;4974306;28;20032;-53
2023/11/29 04:41:09;;;;;;;;;;;20.40;38.60;;;;;;4974302;28;19973;-53
2023/11/29 04:43:36;;;;;;;;;;;20.40;38.30;;;;;;4968041;28;19927;-52
2023/11/29 04:46:03;;;;;;;;;;;20.40;38.10;;;;;;4972393;28;19936;-48
2023/11/29 04:48:30;;;;;;;;;;;20.40;38.00;;;;;;4974602;28;19926;-50
2023/11/29 04:50:58;;;;;;;;;;;20.40;37.80;;;;;;4987178;28;19926;-47
2023/11/29 04:53:25;;;;;;;;;;;20.40;37.60;;;;;;4993957;28;20272;-55
2023/11/29 04:55:55;;;;;;;;;;;20.40;37.50;;;;;;4993512;28;19972;-53
2023/11/29 04:58:23;;;;;;;;;;;20.40;37.50;;;;;;4993723;28;19926;-53
2023/11/29 05:00:50;;;;;;;;;;;20.40;37.60;;;;;;4992576;28;19925;-52
2023/11/29 05:03:20;;;;;;;;;;;20.40;37.40;;;;;;4974244;28;20427;-47
2023/11/29 05:05:48;;;;;;;;;;;20.40;37.40;;;;;;4973830;28;20311;-51
2023/11/29 05:08:15;;;;;;;;;;;20.40;37.30;;;;;;4974014;28;19930;-48
2023/11/29 05:10:42;;;;;;;;;;;20.30;37.20;;;;;;4973562;28;19926;-49
2023/11/29 05:13:09;;;;;;;;;;;20.40;37.20;;;;;;4956959;28;19981;-53
2023/11/29 05:15:36;;;;;;;;;;;20.30;37.10;;;;;;4973957;28;20392;-51
2023/11/29 05:18:03;;;;;;;;;;;20.40;37.10;;;;;;4974190;28;20311;-50
2023/11/29 05:20:31;;;;;;;;;;;20.30;37.00;;;;;;4973791;28;19949;-49
2023/11/29 05:22:58;;;;;;;;;;;20.30;37.00;;;;;;4973739;28;19973;-48
2023/11/29 05:25:25;;;;;;;;;;;20.30;36.90;;;;;;4971523;28;20447;-51
2023/11/29 05:27:52;;;;;;;;;;;20.30;36.90;;;;;;4956941;28;19930;-48
2023/11/29 05:30:19;;;;;;;;;;;20.30;36.90;;;;;;4974509;28;20340;-49
2023/11/29 05:32:46;;;;;;;;;;;20.30;36.80;;;;;;4977504;28;19933;-50
2023/11/29 05:35:13;;;;;;;;;;;20.30;36.70;;;;;;4977459;28;19926;-48
2023/11/29 05:37:41;;;;;;;;;;;20.30;37.00;;;;;;4972593;28;19941;-48
2023/11/29 05:40:09;;;;;;;;;;;20.40;36.80;;;;;;4966345;28;19927;-54
2023/11/29 05:42:38;;;;;;;;;;;20.40;36.70;;;;;;4957936;29;20448;-48
2023/11/29 05:45:06;;;;;;;;;;;20.40;36.60;;;;;;4969549;28;19976;-52
2023/11/29 05:47:33;;;;;;;;;;;20.40;36.60;;;;;;4961366;28;20017;-51
2023/11/29 05:50:00;;;;;;;;;;;20.30;36.50;;;;;;4967950;28;19926;-47
2023/11/29 05:52:27;;;;;;;;;;;20.40;36.50;;;;;;4980864;28;19930;-52
2023/11/29 05:54:55;;;;;;;;;;;20.30;36.40;;;;;;4959666;28;20442;-52
2023/11/29 05:57:23;;;;;;;;;;;20.40;36.40;;;;;;4976861;28;19932;-49
2023/11/29 05:59:50;;;;;;;;;;;20.40;36.40;;;;;;4976534;28;19969;-55
2023/11/29 06:02:17;;;;;;;;;;;20.40;36.40;;;;;;4976689;28;19926;-49
2023/11/29 06:04:44;;;;;;;;;;;20.40;36.40;;;;;;4977592;28;19926;-54
2023/11/29 06:07:11;;;;;;;;;;;20.40;36.40;;;;;;4979287;28;20012;-56
2023/11/29 06:09:39;;;;;;;;;;;20.50;36.60;;;;;;4990721;28;19938;-57
2023/11/29 06:12:07;;;;;;;;;;;20.50;36.60;;;;;;4983647;28;19930;-57
2023/11/29 06:14:34;;;;;;;;;;;20.50;36.60;;;;;;4985661;28;20415;-54
2023/11/29 06:17:01;;;;;;;;;;;20.50;36.60;;;;;;4964780;28;19962;-54
2023/11/29 06:19:28;;;;;;;;;;;20.50;36.60;;;;;;4980328;28;20269;-53
2023/11/29 06:21:55;;;;;;;;;;;20.50;36.80;;;;;;4981329;28;20446;-54
2023/11/29 06:24:22;;;;;;;;;;;20.50;36.90;;;;;;4977506;28;19930;-53
2023/11/29 06:26:49;;;;;;;;;;;20.50;36.90;;;;;;4983362;28;19926;-49
2023/11/29 06:29:17;;;;;;;;;;;20.50;36.80;;;;;;4974954;28;19930;-50
2023/11/29 06:31:44;;;;;;;;;;;20.60;36.90;;;;;;4967349;28;20221;-59
2023/11/29 06:34:11;;;;;;;;;;;20.60;37.50;;;;;;4972890;28;19965;-60
2023/11/29 06:36:39;;;;;;;;;;;20.60;37.50;;;;;;4967998;28;19997;-59
2023/11/29 06:39:09;;;;;;;;;;;20.70;37.90;;;;;;4961577;28;21487;-59
2023/11/29 06:41:36;;;;;;;;;;;20.70;38.10;;;;;;4968484;28;19925;-59
2023/11/29 06:44:06;;;;;;;;;;;20.70;38.20;;;;;;4967776;28;20025;-60
2023/11/29 06:46:33;;;;;;;;;;;20.80;37.80;;;;;;4969989;28;19940;-57
2023/11/29 06:49:01;;;;;;;;;;;20.80;37.70;;;;;;4967728;28;19945;-58
2023/11/29 06:51:28;;;;;;;;;;;20.90;37.60;;;;;;4966991;28;20423;-57
2023/11/29 06:53:55;;;;;;;;;;;20.90;37.60;;;;;;4966639;28;19926;-58
2023/11/29 06:56:22;;;;;;;;;;;21.00;37.40;;;;;;4973937;28;19926;-57
2023/11/29 06:58:51;;;;;;;;;;;21.00;37.40;;;;;;4961634;28;20084;-54
2023/11/29 07:01:18;;;;;;;;;;;21.00;37.30;;;;;;4963700;28;19969;-58
2023/11/29 07:03:45;;;;;;;;;;;21.10;37.30;;;;;;4967354;28;19934;-54
2023/11/29 07:06:20;;;;;;;;;;;21.10;37.20;;;;;;4967587;28;19932;-58
2023/11/29 07:08:47;;;;;;;;;;;21.10;37.10;;;;;;4966817;28;19937;-59
2023/11/29 07:11:14;;;;;;;;;;;21.20;37.10;;;;;;4960600;28;19969;-57
2023/11/29 07:13:41;;;;;;;;;;;21.20;37.40;;;;;;4959519;28;20025;-53
2023/11/29 07:16:09;;;;;;;;;;;21.30;37.50;;;;;;4965465;28;19937;-59
2023/11/29 07:18:37;;;;;;;;;;;21.30;37.50;;;;;;4960408;28;20391;-57
2023/11/29 07:21:04;;;;;;;;;;;21.40;37.60;;;;;;4965731;28;19932;-56
2023/11/29 07:23:31;;;;;;;;;;;21.40;37.40;;;;;;4965299;28;19926;-56
2023/11/29 07:25:59;;;;;;;;;;;21.40;37.10;;;;;;4965741;28;19941;-56
2023/11/29 07:28:27;;;;;;;;;;;21.40;36.90;;;;;;4963386;28;19941;-56
2023/11/29 07:30:54;;;;;;;;;;;21.40;36.80;;;;;;4966537;28;19926;-58
2023/11/29 07:33:21;;;;;;;;;;;21.50;36.70;;;;;;4962517;28;20399;-54
2023/11/29 07:35:48;;;;;;;;;;;21.50;36.60;;;;;;4962876;28;19930;-58
2023/11/29 07:38:15;;;;;;;;;;;21.50;36.50;;;;;;4970071;28;19934;-61
2023/11/29 07:40:43;;;;;;;;;;;21.50;36.50;;;;;;4965261;28;20397;-56
2023/11/29 07:43:10;;;;;;;;;;;21.50;36.50;;;;;;4973237;28;20638;-58
2023/11/29 07:45:41;;;;;;;;;;;21.60;36.50;;;;;;4976425;28;20012;-58
2023/11/29 07:48:08;;;;;;;;;;;21.60;36.40;;;;;;4974424;28;20410;-57
2023/11/29 07:50:36;;;;;;;;;;;21.70;36.40;;;;;;4969618;28;19941;-59
2023/11/29 07:53:03;;;;;;;;;;;21.60;36.40;;;;;;4962055;28;19934;-60
2023/11/29 07:55:30;;;;;;;;;;;21.70;36.50;;;;;;4974269;28;20060;-57
2023/11/29 07:57:56;;;;;;;;;;;21.70;36.40;;;;;;4974453;28;19989;-57
2023/11/29 08:00:24;;;;;;;;;;;21.70;36.60;;;;;;4974686;28;20020;-60
2023/11/29 08:02:51;;;;;;;;;;;21.70;36.70;;;;;;4970032;28;19930;-59
2023/11/29 08:05:24;;;;;;;;;;;21.80;36.90;;;;;;4970500;28;20376;-57
2023/11/29 08:07:51;;;;;;;;;;;21.80;36.60;;;;;;4952481;28;20027;-63
2023/11/29 08:10:18;;;;;;;;;;;21.80;36.50;;;;;;4952548;28;20475;-63
2023/11/29 08:12:46;;;;;;;;;;;21.80;36.70;;;;;;4970127;28;19933;-62
2023/11/29 08:15:13;;;;;;;;;;;21.90;36.70;;;;;;4960315;28;19926;-60
2023/11/29 08:17:41;;;;;;;;;;;21.90;36.70;;;;;;4970683;28;20398;-61
2023/11/29 08:20:09;;;;;;;;;;;21.90;37.40;;;;;;4966606;28;19937;-60
2023/11/29 08:22:36;;;;;;;;;;;21.90;37.00;;;;;;4972149;28;19930;-59
2023/11/29 08:25:03;;;;;;;;;;;22.00;37.10;;;;;;4965562;28;20107;-59
2023/11/29 08:27:30;;;;;;;;;;;22.00;37.10;;;;;;4965540;28;19933;-56
2023/11/29 08:29:57;;;;;;;;;;;22.10;37.10;;;;;;4965278;28;20350;-59
2023/11/29 08:32:24;;;;;;;;;;;22.00;37.00;;;;;;4967585;28;19933;-58
2023/11/29 08:34:52;;;;;;;;;;;22.10;37.60;;;;;;4972591;28;20288;-58
2023/11/29 08:37:19;;;;;;;;;;;22.10;36.80;;;;;;4970432;28;20040;-56
2023/11/29 08:39:46;;;;;;;;;;;22.10;36.70;;;;;;4971495;28;19934;-58
2023/11/29 08:42:13;;;;;;;;;;;22.10;36.70;;;;;;4968706;28;20336;-59
2023/11/29 08:44:41;;;;;;;;;;;22.20;36.60;;;;;;4965341;28;19934;-60
2023/11/29 08:47:09;;;;;;;;;;;22.20;36.50;;;;;;4962366;28;19941;-59
2023/11/29 08:49:36;;;;;;;;;;;22.20;36.50;;;;;;4969960;28;21596;-59
2023/11/29 08:52:03;;;;;;;;;;;22.20;36.50;;;;;;4947063;28;19930;-58
2023/11/29 08:54:31;;;;;;;;;;;22.20;36.30;;;;;;4962718;28;19927;-59
2023/11/29 08:56:58;;;;;;;;;;;22.20;36.30;;;;;;4962109;28;20694;-59
2023/11/29 08:59:25;;;;;;;;;;;22.30;36.30;;;;;;4962394;28;19926;-58
2023/11/29 09:01:52;;;;;;;;;;;22.30;36.30;;;;;;4962252;28;19929;-57
2023/11/29 09:04:19;;;;;;;;;;;22.30;36.10;;;;;;4965695;28;19944;-59
2023/11/29 09:06:46;;;;;;;;;;;22.30;36.10;;;;;;4963913;28;20371;-60
2023/11/29 09:09:14;;;;;;;;;;;22.30;36.10;;;;;;4968200;28;19934;-56
2023/11/29 09:11:41;;;;;;;;;;;22.30;36.00;;;;;;4975485;28;20560;-57
2023/11/29 09:14:08;;;;;;;;;;;22.30;35.90;;;;;;4971966;28;20396;-59
2023/11/29 09:16:36;;;;;;;;;;;22.30;35.70;;;;;;4970092;28;19965;-59
2023/11/29 09:19:03;;;;;;;;;;;22.40;35.70;;;;;;4966818;28;20201;-59
2023/11/29 09:21:30;;;;;;;;;;;22.40;35.60;;;;;;4962512;28;20025;-58
2023/11/29 09:23:57;;;;;;;;;;;22.40;35.60;;;;;;4967231;28;19992;-59
2023/11/29 09:26:24;;;;;;;;;;;22.40;35.60;;;;;;4967286;28;20016;-58
2023/11/29 09:28:51;;;;;;;;;;;22.40;35.70;;;;;;4966201;28;20455;-59
2023/11/29 09:31:18;;;;;;;;;;;22.40;35.70;;;;;;4966379;28;20024;-57
2023/11/29 09:33:46;;;;;;;;;;;22.40;35.80;;;;;;4971459;28;19981;-60
2023/11/29 09:36:15;;;;;;;;;;;22.40;35.80;;;;;;4965679;28;19934;-60
2023/11/29 09:38:42;;;;;;;;;;;22.40;35.80;;;;;;4967604;28;20370;-60
2023/11/29 09:41:11;;;;;;;;;;;22.40;35.70;;;;;;4968640;28;20073;-59
2023/11/29 09:43:39;;;;;;;;;;;22.40;35.70;;;;;;4956878;28;19926;-58
2023/11/29 09:46:06;;;;;;;;;;;22.40;35.60;;;;;;4974468;28;19930;-60
2023/11/29 09:48:33;;;;;;;;;;;22.50;35.50;;;;;;4976168;28;19926;-58
2023/11/29 09:51:01;;;;;;;;;;;22.50;35.60;;;;;;4972150;28;19926;-61
2023/11/29 09:53:30;;;;;;;;;;;22.50;35.60;;;;;;4971222;28;19961;-60
2023/11/29 09:55:57;;;;;;;;;;;22.50;35.50;;;;;;4972375;28;19938;-60
2023/11/29 09:58:27;;;;;;;;;;;22.50;35.50;;;;;;4969523;28;19981;-62
2023/11/29 10:00:54;;;;;;;;;;;22.50;35.40;;;;;;4969249;28;19934;-61
2023/11/29 10:03:22;;;;;;;;;;;22.60;35.40;;;;;;4966320;28;19934;-60
2023/11/29 10:05:49;;;;;;;;;;;22.60;35.40;;;;;;4952376;28;20032;-59
2023/11/29 10:08:19;;;;;;;;;;;22.60;35.30;;;;;;4973816;28;19938;-60
2023/11/29 10:10:46;;;;;;;;;;;22.60;35.30;;;;;;4954552;28;19949;-58
2023/11/29 10:13:17;;;;;;;;;;;22.60;35.30;;;;;;4970893;28;19933;-61
2023/11/29 10:15:46;;;;;;;;;;;22.60;35.30;;;;;;4965185;28;19930;-61
2023/11/29 10:18:17;;;;;;;;;;;22.60;35.10;;;;;;4964730;28;19956;-62
2023/11/29 10:20:51;;;;;;;;;;;22.60;35.10;;;;;;4967036;28;19926;-67
2023/11/29 10:23:32;;;;;;;;;;;22.60;35.20;;;;;;4970528;28;19934;-58
2023/11/29 10:26:00;;;;;;;;;;;22.60;35.10;;;;;;4969063;28;19934;-61
2023/11/29 10:28:27;;;;;;;;;;;22.70;35.10;;;;;;4964847;28;19949;-61
2023/11/29 10:30:54;;;;;;;;;;;22.70;35.00;;;;;;4965871;28;20411;-59
2023/11/29 10:33:21;;;;;;;;;;;22.70;35.00;;;;;;4968592;28;19940;-58
2023/11/29 10:35:49;;;;;;;;;;;22.70;34.90;;;;;;4969227;28;19957;-59
2023/11/29 10:38:18;;;;;;;;;;;22.70;34.80;;;;;;4971325;28;19926;-60
2023/11/29 10:40:45;;;;;;;;;;;22.70;34.80;;;;;;4970126;28;19926;-60
2023/11/29 10:43:13;;;;;;;;;;;22.70;34.90;;;;;;4973610;28;20724;-60
2023/11/29 10:45:41;;;;;;;;;;;22.70;35.00;;;;;;4969847;28;19937;-59
2023/11/29 10:48:14;;;;;;;;;;;22.80;35.00;;;;;;4966553;28;20359;-58
2023/11/29 10:50:45;;;;;;;;;;;22.80;34.80;;;;;;4969256;28;19949;-57
2023/11/29 10:53:12;;;;;;;;;;;22.80;34.80;;;;;;4972739;28;19926;-60
2023/11/29 10:55:40;;;;;;;;;;;22.80;34.80;;;;;;4972177;28;19940;-60
2023/11/29 10:58:22;;;;;;;;;;;22.80;34.70;;;;;;4972317;28;20280;-65
2023/11/29 11:00:49;;;;;;;;;;;22.80;34.70;;;;;;4972358;28;19945;-58
2023/11/29 11:03:36;;;;;;;;;;;22.80;34.60;;;;;;4972639;28;19930;-60
2023/11/29 11:06:23;;;;;;;;;;;22.80;34.40;;;;;;4960616;28;19934;-59
2023/11/29 11:08:51;;;;;;;;;;;22.90;34.30;;;;;;4961753;28;19930;-59
2023/11/29 11:11:38;;;;;;;;;;;22.90;34.30;;;;;;4975031;28;19966;-56
2023/11/29 11:14:25;;;;;;;;;;;22.90;34.30;;;;;;4970739;28;19938;-59
2023/11/29 11:16:55;;;;;;;;;;;22.90;34.20;;;;;;4970118;28;20304;-61
2023/11/29 11:19:36;;;;;;;;;;;22.90;33.90;;;;;;4973290;28;19934;-61
2023/11/29 11:22:09;;;;;;;;;;;22.90;33.60;;;;;;4978579;28;19966;-59
2023/11/29 11:24:59;;;;;;;;;;;22.90;33.60;;;;;;4972807;28;20112;-61
2023/11/29 11:27:31;;;;;;;;;;;22.90;33.50;;;;;;4965893;28;19973;-59
2023/11/29 11:29:58;;;;;;;;;;;22.90;33.20;;;;;;4968169;28;20344;-59
2023/11/29 11:32:45;;;;;;;;;;;23.00;33.20;;;;;;4973791;28;20315;-58
2023/11/29 11:35:23;;;;;;;;;;;23.00;33.30;;;;;;4967899;28;19926;-59
2023/11/29 11:37:55;;;;;;;;;;;22.90;33.10;;;;;;4969644;28;19957;-56
2023/11/29 11:40:24;;;;;;;;;;;23.00;33.20;;;;;;4966747;28;20032;-59
2023/11/29 11:42:51;;;;;;;;;;;23.00;33.10;;;;;;4966529;28;20363;-58
2023/11/29 11:45:21;;;;;;;;;;;23.00;33.10;;;;;;4970887;28;20054;-58
2023/11/29 11:47:48;;;;;;;;;;;23.00;33.30;;;;;;4972815;28;19930;-59
2023/11/29 11:50:19;;;;;;;;;;;23.00;33.40;;;;;;4969673;28;19926;-58
2023/11/29 11:52:46;;;;;;;;;;;23.00;33.60;;;;;;4970037;28;20011;-59
2023/11/29 11:55:15;;;;;;;;;;;23.00;33.80;;;;;;4969149;28;19934;-59
2023/11/29 11:57:46;;;;;;;;;;;23.00;33.80;;;;;;4969193;28;19926;-58
2023/11/29 12:00:14;;;;;;;;;;;23.00;33.80;;;;;;4963197;28;19933;-60
2023/11/29 12:02:41;;;;;;;;;;;23.00;33.80;;;;;;4971160;28;19973;-59
2023/11/29 12:05:09;;;;;;;;;;;23.00;33.80;;;;;;4951045;28;19934;-60
2023/11/29 12:07:39;;;;;;;;;;;23.00;33.80;;;;;;4969190;28;19941;-56
2023/11/29 12:10:08;;;;;;;;;;;23.00;33.80;;;;;;4968348;28;19944;-55
2023/11/29 12:12:36;;;;;;;;;;;23.00;33.80;;;;;;4965094;28;19941;-59
2023/11/29 12:15:04;;;;;;;;;;;23.00;33.70;;;;;;4964952;28;19934;-58
2023/11/29 12:17:35;;;;;;;;;;;23.00;33.60;;;;;;4962272;28;20009;-58
2023/11/29 12:20:05;;;;;;;;;;;23.00;33.50;;;;;;4966297;28;19936;-56
2023/11/29 12:22:32;;;;;;;;;;;23.00;34.10;;;;;;4964452;28;19949;-58
2023/11/29 12:25:00;;;;;;;;;;;23.00;33.40;;;;;;4965741;28;19934;-58
2023/11/29 12:27:27;;;;;;;;;;;23.00;33.30;;;;;;4963589;28;19927;-57
2023/11/29 12:29:56;;;;;;;;;;;23.00;33.30;;;;;;4969092;28;20462;-59
2023/11/29 12:32:24;;;;;;;;;;;23.00;33.20;;;;;;4962763;28;19934;-60
2023/11/29 12:34:52;;;;;;;;;;;23.00;33.20;;;;;;4962988;28;20030;-57
2023/11/29 12:37:19;;;;;;;;;;;23.10;33.40;;;;;;4966460;28;19934;-59
2023/11/29 12:39:46;;;;;;;;;;;23.10;33.40;;;;;;4949717;28;20009;-57
2023/11/29 12:42:15;;;;;;;;;;;23.10;33.30;;;;;;4967183;28;19949;-55
2023/11/29 12:44:42;;;;;;;;;;;23.00;33.20;;;;;;4965200;28;19973;-57
2023/11/29 12:47:09;;;;;;;;;;;23.10;33.30;;;;;;4968851;28;20402;-55
2023/11/29 12:49:36;;;;;;;;;;;23.10;33.20;;;;;;4968473;28;19926;-55
2023/11/29 12:52:04;;;;;;;;;;;23.00;33.10;;;;;;4969357;28;19936;-60
2023/11/29 12:54:31;;;;;;;;;;;23.00;33.00;;;;;;4969338;28;20455;-56
2023/11/29 12:56:58;;;;;;;;;;;23.00;33.00;;;;;;4969399;28;19940;-56
2023/11/29 12:59:25;;;;;;;;;;;23.00;33.00;;;;;;4971603;28;19989;-54
2023/11/29 13:01:52;;;;;;;;;;;23.00;33.00;;;;;;4964020;28;19934;-55
2023/11/29 13:04:19;;;;;;;;;;;23.00;33.00;;;;;;4968416;28;19930;-56
2023/11/29 13:06:47;;;;;;;;;;;23.00;32.90;;;;;;4971702;28;19934;-52
2023/11/29 13:09:15;;;;;;;;;;;23.00;32.80;;;;;;4970752;28;19934;-56
2023/11/29 13:11:42;;;;;;;;;;;23.00;32.70;;;;;;4966724;28;19926;-53
2023/11/29 13:14:12;;;;;;;;;;;23.00;32.70;;;;;;4954717;28;19941;-58
2023/11/29 13:16:39;;;;;;;;;;;23.10;32.80;;;;;;4967160;28;20047;-60
2023/11/29 13:19:06;;;;;;;;;;;23.10;32.60;;;;;;4971340;28;20032;-58
2023/11/29 13:21:36;;;;;;;;;;;23.00;32.40;;;;;;4954689;28;20383;-53
2023/11/29 13:24:03;;;;;;;;;;;23.10;32.40;;;;;;4969272;28;19934;-55
2023/11/29 13:26:31;;;;;;;;;;;23.10;32.50;;;;;;4968148;28;21572;-57
2023/11/29 13:28:58;;;;;;;;;;;23.10;32.70;;;;;;4967532;28;19926;-55
2023/11/29 13:31:25;;;;;;;;;;;23.00;33.00;;;;;;4965474;28;19988;-56
2023/11/29 13:33:52;;;;;;;;;;;23.00;33.00;;;;;;4964859;28;19953;-53
2023/11/29 13:36:21;;;;;;;;;;;23.00;32.90;;;;;;4966690;28;19942;-56
2023/11/29 13:38:50;;;;;;;;;;;23.00;32.90;;;;;;4966654;28;19926;-51
2023/11/29 13:41:18;;;;;;;;;;;23.00;33.00;;;;;;4963073;28;19930;-55
2023/11/29 13:43:45;;;;;;;;;;;23.00;33.30;;;;;;4965214;28;19942;-53
2023/11/29 13:46:12;;;;;;;;;;;23.00;33.40;;;;;;4965136;28;20423;-56
2023/11/29 13:48:39;;;;;;;;;;;23.00;33.50;;;;;;4964971;28;20315;-50
2023/11/29 13:51:07;;;;;;;;;;;23.10;33.80;;;;;;4955336;28;20048;-53
2023/11/29 13:53:36;;;;;;;;;;;23.10;33.70;;;;;;4968081;28;19937;-56
2023/11/29 13:56:03;;;;;;;;;;;23.10;33.60;;;;;;4964501;28;20498;-51
2023/11/29 13:58:30;;;;;;;;;;;23.10;33.60;;;;;;4969865;28;20272;-54
2023/11/29 14:00:57;;;;;;;;;;;23.10;33.50;;;;;;4952817;28;20380;-54
2023/11/29 14:03:24;;;;;;;;;;;23.10;33.50;;;;;;4965826;28;19934;-53
2023/11/29 14:06:03;;;;;;;;;;;23.10;33.30;;;;;;4967949;28;20431;-49
2023/11/29 14:08:31;;;;;;;;;;;23.10;33.50;;;;;;4964990;28;19938;-49
2023/11/29 14:10:58;;;;;;;;;;;23.10;33.70;;;;;;4971299;28;20455;-53
2023/11/29 14:13:28;;;;;;;;;;;23.10;33.90;;;;;;4955172;28;21789;-52
2023/11/29 14:15:59;;;;;;;;;;;23.10;34.00;;;;;;4962852;28;20612;-53
2023/11/29 14:18:26;;;;;;;;;;;23.20;34.20;;;;;;4972372;28;19933;-54
2023/11/29 14:20:53;;;;;;;;;;;23.20;34.20;;;;;;4967182;28;19969;-55